sensor_id;sensor_type;location;lat;lon;timestamp;P1;durP1;ratioP1;P2;durP2;ratioP2
5878;SDS011;2965;42.640;23.370;2023-07-13T04:01:21;9.60;;;8.70;;
5878;SDS011;2965;42.640;23.370;2023-07-13T04:03:47;8.67;;;7.87;;
5878;SDS011;2965;42.640;23.370;2023-07-13T04:06:14;11.90;;;9.70;;
5878;SDS011;2965;42.640;23.370;2023-07-13T04:08:46;10.00;;;9.07;;
5878;SDS011;2965;42.640;23.370;2023-07-13T04:11:13;9.93;;;8.93;;
5878;SDS011;2965;42.640;23.370;2023-07-13T04:13:38;12.20;;;8.90;;
5878;SDS011;2965;42.640;23.370;2023-07-13T04:16:03;9.57;;;8.63;;
5878;SDS011;2965;42.640;23.370;2023-07-13T04:18:29;12.57;;;10.53;;
5878;SDS011;2965;42.640;23.370;2023-07-13T04:20:54;13.67;;;9.93;;
5878;SDS011;2965;42.640;23.370;2023-07-13T04:23:19;16.23;;;9.80;;
5878;SDS011;2965;42.640;23.370;2023-07-13T04:25:49;18.00;;;10.30;;
5878;SDS011;2965;42.640;23.370;2023-07-13T04:28:17;12.60;;;9.87;;
5878;SDS011;2965;42.640;23.370;2023-07-13T04:30:46;11.93;;;9.53;;
5878;SDS011;2965;42.640;23.370;2023-07-13T04:33:11;9.97;;;8.30;;
5878;SDS011;2965;42.640;23.370;2023-07-13T04:35:37;16.30;;;9.07;;
5878;SDS011;2965;42.640;23.370;2023-07-13T04:38:02;9.43;;;8.60;;
5878;SDS011;2965;42.640;23.370;2023-07-13T04:40:28;11.63;;;9.53;;
5878;SDS011;2965;42.640;23.370;2023-07-13T04:42:54;12.97;;;10.30;;
5878;SDS011;2965;42.640;23.370;2023-07-13T04:45:20;13.63;;;9.90;;
5878;SDS011;2965;42.640;23.370;2023-07-13T04:47:46;11.93;;;10.00;;
5878;SDS011;2965;42.640;23.370;2023-07-13T04:50:12;16.40;;;9.80;;
5878;SDS011;2965;42.640;23.370;2023-07-13T04:52:46;10.03;;;9.10;;
5878;SDS011;2965;42.640;23.370;2023-07-13T04:55:11;14.90;;;10.27;;
5878;SDS011;2965;42.640;23.370;2023-07-13T04:57:37;9.93;;;8.97;;
5878;SDS011;2965;42.640;23.370;2023-07-13T05:00:03;10.27;;;9.47;;
5878;SDS011;2965;42.640;23.370;2023-07-13T05:02:30;17.50;;;10.73;;
5878;SDS011;2965;42.640;23.370;2023-07-13T05:04:57;9.63;;;8.63;;
5878;SDS011;2965;42.640;23.370;2023-07-13T05:07:23;11.60;;;10.00;;
5878;SDS011;2965;42.640;23.370;2023-07-13T05:09:48;15.33;;;10.13;;
5878;SDS011;2965;42.640;23.370;2023-07-13T05:12:13;17.83;;;10.90;;
5878;SDS011;2965;42.640;23.370;2023-07-13T05:14:39;10.80;;;9.90;;
5878;SDS011;2965;42.640;23.370;2023-07-13T05:17:04;25.13;;;10.00;;
5878;SDS011;2965;42.640;23.370;2023-07-13T05:19:30;15.93;;;9.07;;
5878;SDS011;2965;42.640;23.370;2023-07-13T05:21:56;16.97;;;9.43;;
5878;SDS011;2965;42.640;23.370;2023-07-13T05:24:21;13.83;;;9.73;;
5878;SDS011;2965;42.640;23.370;2023-07-13T05:26:46;10.23;;;9.27;;
5878;SDS011;2965;42.640;23.370;2023-07-13T05:29:12;10.57;;;9.57;;
5878;SDS011;2965;42.640;23.370;2023-07-13T05:31:37;12.00;;;10.60;;
5878;SDS011;2965;42.640;23.370;2023-07-13T05:34:03;12.53;;;10.30;;
5878;SDS011;2965;42.640;23.370;2023-07-13T05:36:28;13.93;;;9.67;;
5878;SDS011;2965;42.640;23.370;2023-07-13T05:38:53;12.33;;;9.30;;
5878;SDS011;2965;42.640;23.370;2023-07-13T05:41:19;11.03;;;9.83;;
5878;SDS011;2965;42.640;23.370;2023-07-13T05:43:44;20.10;;;9.60;;
5878;SDS011;2965;42.640;23.370;2023-07-13T05:46:09;10.93;;;9.87;;
5878;SDS011;2965;42.640;23.370;2023-07-13T05:48:35;11.10;;;10.00;;
5878;SDS011;2965;42.640;23.370;2023-07-13T05:51:00;10.17;;;9.33;;
5878;SDS011;2965;42.640;23.370;2023-07-13T05:53:26;12.00;;;10.33;;
5878;SDS011;2965;42.640;23.370;2023-07-13T05:55:53;11.90;;;10.57;;
5878;SDS011;2965;42.640;23.370;2023-07-13T05:58:19;13.03;;;10.37;;
5878;SDS011;2965;42.640;23.370;2023-07-13T06:00:45;12.10;;;10.53;;
5878;SDS011;2965;42.640;23.370;2023-07-13T06:03:12;13.13;;;9.93;;
5878;SDS011;2965;42.640;23.370;2023-07-13T06:05:37;12.83;;;11.00;;
5878;SDS011;2965;42.640;23.370;2023-07-13T06:08:03;14.47;;;11.70;;
5878;SDS011;2965;42.640;23.370;2023-07-13T06:10:29;15.63;;;11.63;;
5878;SDS011;2965;42.640;23.370;2023-07-13T06:12:57;17.23;;;13.40;;
5878;SDS011;2965;42.640;23.370;2023-07-13T06:15:22;20.23;;;13.40;;
5878;SDS011;2965;42.640;23.370;2023-07-13T06:17:47;16.07;;;13.00;;
5878;SDS011;2965;42.640;23.370;2023-07-13T06:20:13;15.47;;;13.10;;
5878;SDS011;2965;42.640;23.370;2023-07-13T06:22:38;16.03;;;12.50;;
5878;SDS011;2965;42.640;23.370;2023-07-13T06:25:03;15.63;;;11.27;;
5878;SDS011;2965;42.640;23.370;2023-07-13T06:27:29;18.10;;;12.00;;
5878;SDS011;2965;42.640;23.370;2023-07-13T06:29:55;20.27;;;11.50;;
5878;SDS011;2965;42.640;23.370;2023-07-13T06:32:20;13.53;;;11.97;;
5878;SDS011;2965;42.640;23.370;2023-07-13T06:34:46;15.93;;;11.60;;
5878;SDS011;2965;42.640;23.370;2023-07-13T06:37:11;13.50;;;11.43;;
5878;SDS011;2965;42.640;23.370;2023-07-13T06:39:36;11.60;;;10.60;;
5878;SDS011;2965;42.640;23.370;2023-07-13T06:42:02;11.80;;;10.70;;
5878;SDS011;2965;42.640;23.370;2023-07-13T06:44:27;12.50;;;11.30;;
5878;SDS011;2965;42.640;23.370;2023-07-13T06:46:53;12.43;;;11.37;;
5878;SDS011;2965;42.640;23.370;2023-07-13T06:49:18;16.13;;;11.53;;
5878;SDS011;2965;42.640;23.370;2023-07-13T06:51:43;12.23;;;10.93;;
5878;SDS011;2965;42.640;23.370;2023-07-13T06:54:09;14.57;;;12.00;;
5878;SDS011;2965;42.640;23.370;2023-07-13T06:56:34;16.70;;;12.00;;
5878;SDS011;2965;42.640;23.370;2023-07-13T06:59:00;12.53;;;11.00;;
5878;SDS011;2965;42.640;23.370;2023-07-13T07:01:25;15.80;;;11.50;;
5878;SDS011;2965;42.640;23.370;2023-07-13T07:03:50;16.60;;;11.43;;
5878;SDS011;2965;42.640;23.370;2023-07-13T07:06:18;19.37;;;11.23;;
5878;SDS011;2965;42.640;23.370;2023-07-13T07:08:45;21.50;;;12.10;;
5878;SDS011;2965;42.640;23.370;2023-07-13T07:11:16;17.00;;;11.10;;
5878;SDS011;2965;42.640;23.370;2023-07-13T07:13:42;20.03;;;11.30;;
5878;SDS011;2965;42.640;23.370;2023-07-13T07:16:08;24.00;;;11.47;;
5878;SDS011;2965;42.640;23.370;2023-07-13T07:18:34;11.93;;;10.50;;
5878;SDS011;2965;42.640;23.370;2023-07-13T07:21:00;18.47;;;10.20;;
5878;SDS011;2965;42.640;23.370;2023-07-13T07:23:25;11.30;;;10.37;;
5878;SDS011;2965;42.640;23.370;2023-07-13T07:25:51;19.67;;;11.00;;
5878;SDS011;2965;42.640;23.370;2023-07-13T07:28:17;15.00;;;11.63;;
5878;SDS011;2965;42.640;23.370;2023-07-13T07:30:46;12.83;;;11.73;;
5878;SDS011;2965;42.640;23.370;2023-07-13T07:33:12;29.83;;;12.90;;
5878;SDS011;2965;42.640;23.370;2023-07-13T07:35:38;25.73;;;13.27;;
5878;SDS011;2965;42.640;23.370;2023-07-13T07:38:04;11.57;;;10.57;;
5878;SDS011;2965;42.640;23.370;2023-07-13T07:40:29;18.50;;;11.70;;
5878;SDS011;2965;42.640;23.370;2023-07-13T07:42:56;15.70;;;12.00;;
5878;SDS011;2965;42.640;23.370;2023-07-13T07:45:21;19.93;;;10.80;;
5878;SDS011;2965;42.640;23.370;2023-07-13T07:47:47;28.43;;;12.03;;
5878;SDS011;2965;42.640;23.370;2023-07-13T07:50:12;28.77;;;11.97;;
5878;SDS011;2965;42.640;23.370;2023-07-13T07:52:38;66.63;;;14.20;;
5878;SDS011;2965;42.640;23.370;2023-07-13T07:55:04;61.97;;;14.10;;
5878;SDS011;2965;42.640;23.370;2023-07-13T07:57:31;19.37;;;12.03;;
5878;SDS011;2965;42.640;23.370;2023-07-13T07:59:56;12.33;;;11.13;;
5878;SDS011;2965;42.640;23.370;2023-07-13T08:02:21;25.47;;;10.47;;
5878;SDS011;2965;42.640;23.370;2023-07-13T08:04:47;32.67;;;13.67;;
5878;SDS011;2965;42.640;23.370;2023-07-13T08:07:12;12.40;;;11.30;;
5878;SDS011;2965;42.640;23.370;2023-07-13T08:09:38;13.03;;;11.37;;
5878;SDS011;2965;42.640;23.370;2023-07-13T08:12:03;12.00;;;10.90;;
5878;SDS011;2965;42.640;23.370;2023-07-13T08:14:29;15.73;;;11.50;;
5878;SDS011;2965;42.640;23.370;2023-07-13T08:16:54;12.93;;;11.20;;
5878;SDS011;2965;42.640;23.370;2023-07-13T08:19:20;36.43;;;14.43;;
5878;SDS011;2965;42.640;23.370;2023-07-13T08:21:45;14.47;;;10.80;;
5878;SDS011;2965;42.640;23.370;2023-07-13T08:24:13;20.90;;;11.37;;
5878;SDS011;2965;42.640;23.370;2023-07-13T08:26:39;23.93;;;12.20;;
5878;SDS011;2965;42.640;23.370;2023-07-13T08:29:04;15.40;;;11.60;;
5878;SDS011;2965;42.640;23.370;2023-07-13T08:31:30;32.73;;;12.13;;
5878;SDS011;2965;42.640;23.370;2023-07-13T08:33:55;13.00;;;11.57;;
5878;SDS011;2965;42.640;23.370;2023-07-13T08:36:21;16.23;;;11.67;;
5878;SDS011;2965;42.640;23.370;2023-07-13T08:38:46;27.37;;;11.80;;
5878;SDS011;2965;42.640;23.370;2023-07-13T08:41:13;13.53;;;12.10;;
5878;SDS011;2965;42.640;23.370;2023-07-13T08:43:41;12.07;;;10.77;;
5878;SDS011;2965;42.640;23.370;2023-07-13T08:51:21;13.30;;;11.03;;
5878;SDS011;2965;42.640;23.370;2023-07-13T08:53:48;12.23;;;11.00;;
5878;SDS011;2965;42.640;23.370;2023-07-13T08:56:17;17.60;;;12.30;;
5878;SDS011;2965;42.640;23.370;2023-07-13T08:58:46;12.80;;;11.43;;
5878;SDS011;2965;42.640;23.370;2023-07-13T09:01:16;16.53;;;10.30;;
5878;SDS011;2965;42.640;23.370;2023-07-13T09:04:32;13.20;;;10.77;;
5878;SDS011;2965;42.640;23.370;2023-07-13T09:10:14;14.20;;;10.87;;
5878;SDS011;2965;42.640;23.370;2023-07-13T09:17:48;12.97;;;11.73;;
5878;SDS011;2965;42.640;23.370;2023-07-13T09:22:51;11.50;;;10.40;;
5878;SDS011;2965;42.640;23.370;2023-07-13T09:25:25;13.53;;;11.93;;
5878;SDS011;2965;42.640;23.370;2023-07-13T09:27:57;13.10;;;11.60;;
5878;SDS011;2965;42.640;23.370;2023-07-13T09:30:32;23.27;;;11.40;;
5878;SDS011;2965;42.640;23.370;2023-07-13T09:33:03;14.80;;;10.20;;
5878;SDS011;2965;42.640;23.370;2023-07-13T09:35:29;16.33;;;11.10;;
5878;SDS011;2965;42.640;23.370;2023-07-13T09:38:14;17.20;;;11.43;;
5878;SDS011;2965;42.640;23.370;2023-07-13T09:40:44;15.33;;;11.60;;
5878;SDS011;2965;42.640;23.370;2023-07-13T09:43:19;13.43;;;10.97;;
5878;SDS011;2965;42.640;23.370;2023-07-13T09:45:46;18.57;;;10.70;;
5878;SDS011;2965;42.640;23.370;2023-07-13T09:48:13;13.60;;;11.20;;
5878;SDS011;2965;42.640;23.370;2023-07-13T09:50:40;37.27;;;11.23;;
5878;SDS011;2965;42.640;23.370;2023-07-13T09:53:11;29.97;;;11.43;;
5878;SDS011;2965;42.640;23.370;2023-07-13T09:55:38;12.63;;;11.10;;
5878;SDS011;2965;42.640;23.370;2023-07-13T10:00:40;11.80;;;10.70;;
5878;SDS011;2965;42.640;23.370;2023-07-13T10:03:16;28.17;;;12.13;;
5878;SDS011;2965;42.640;23.370;2023-07-13T10:05:49;16.53;;;11.10;;
5878;SDS011;2965;42.640;23.370;2023-07-13T10:08:28;13.20;;;10.33;;
5878;SDS011;2965;42.640;23.370;2023-07-13T10:10:59;11.53;;;10.40;;
5878;SDS011;2965;42.640;23.370;2023-07-13T10:13:38;19.10;;;10.10;;
5878;SDS011;2965;42.640;23.370;2023-07-13T10:16:09;12.83;;;9.87;;
5878;SDS011;2965;42.640;23.370;2023-07-13T10:18:57;12.07;;;10.83;;
5878;SDS011;2965;42.640;23.370;2023-07-13T10:21:23;12.50;;;10.07;;
5878;SDS011;2965;42.640;23.370;2023-07-13T10:24:10;14.43;;;9.50;;
5878;SDS011;2965;42.640;23.370;2023-07-13T10:26:56;12.20;;;9.60;;
5878;SDS011;2965;42.640;23.370;2023-07-13T10:29:29;12.27;;;10.37;;
5878;SDS011;2965;42.640;23.370;2023-07-13T10:32:01;11.83;;;10.77;;
5878;SDS011;2965;42.640;23.370;2023-07-13T10:34:27;11.03;;;9.90;;
5878;SDS011;2965;42.640;23.370;2023-07-13T10:36:53;10.90;;;10.00;;
5878;SDS011;2965;42.640;23.370;2023-07-13T10:39:19;12.60;;;10.30;;
5878;SDS011;2965;42.640;23.370;2023-07-13T10:41:58;11.30;;;10.20;;
5878;SDS011;2965;42.640;23.370;2023-07-13T10:44:28;11.43;;;10.00;;
5878;SDS011;2965;42.640;23.370;2023-07-13T10:46:55;15.57;;;10.50;;
5878;SDS011;2965;42.640;23.370;2023-07-13T10:49:24;12.43;;;9.80;;
5878;SDS011;2965;42.640;23.370;2023-07-13T10:51:52;18.27;;;10.73;;
5878;SDS011;2965;42.640;23.370;2023-07-13T10:54:22;20.80;;;10.50;;
5878;SDS011;2965;42.640;23.370;2023-07-13T10:57:07;12.33;;;11.17;;
5878;SDS011;2965;42.640;23.370;2023-07-13T10:59:42;12.00;;;8.87;;
5878;SDS011;2965;42.640;23.370;2023-07-13T11:02:24;18.57;;;9.80;;
5878;SDS011;2965;42.640;23.370;2023-07-13T11:04:52;10.37;;;9.43;;
5878;SDS011;2965;42.640;23.370;2023-07-13T11:07:20;13.00;;;9.67;;
5878;SDS011;2965;42.640;23.370;2023-07-13T11:09:56;10.63;;;9.27;;
5878;SDS011;2965;42.640;23.370;2023-07-13T11:12:48;10.53;;;9.30;;
5878;SDS011;2965;42.640;23.370;2023-07-13T11:15:32;10.07;;;8.90;;
5878;SDS011;2965;42.640;23.370;2023-07-13T11:18:19;12.73;;;8.90;;
5878;SDS011;2965;42.640;23.370;2023-07-13T11:20:46;12.10;;;9.17;;
5878;SDS011;2965;42.640;23.370;2023-07-13T11:25:41;12.57;;;8.77;;
5878;SDS011;2965;42.640;23.370;2023-07-13T11:35:40;9.20;;;8.40;;
5878;SDS011;2965;42.640;23.370;2023-07-13T11:38:13;9.33;;;8.33;;
5878;SDS011;2965;42.640;23.370;2023-07-13T11:40:43;23.97;;;9.37;;
5878;SDS011;2965;42.640;23.370;2023-07-13T11:43:12;11.67;;;9.70;;
5878;SDS011;2965;42.640;23.370;2023-07-13T11:45:40;8.13;;;7.60;;
5878;SDS011;2965;42.640;23.370;2023-07-13T11:48:16;8.33;;;7.53;;
5878;SDS011;2965;42.640;23.370;2023-07-13T11:50:48;23.77;;;8.57;;
5878;SDS011;2965;42.640;23.370;2023-07-13T11:53:16;21.40;;;8.73;;
5878;SDS011;2965;42.640;23.370;2023-07-13T11:55:42;17.60;;;8.30;;
5878;SDS011;2965;42.640;23.370;2023-07-13T11:58:07;12.30;;;7.73;;
5878;SDS011;2965;42.640;23.370;2023-07-13T12:00:35;9.40;;;7.40;;
5878;SDS011;2965;42.640;23.370;2023-07-13T12:03:03;7.50;;;6.93;;
5878;SDS011;2965;42.640;23.370;2023-07-13T12:05:30;19.20;;;7.00;;
5878;SDS011;2965;42.640;23.370;2023-07-13T12:07:57;7.57;;;6.87;;
5878;SDS011;2965;42.640;23.370;2023-07-13T12:13:01;8.77;;;7.20;;
5878;SDS011;2965;42.640;23.370;2023-07-13T12:18:00;9.90;;;6.73;;
5878;SDS011;2965;42.640;23.370;2023-07-13T12:20:37;11.20;;;7.13;;
5878;SDS011;2965;42.640;23.370;2023-07-13T12:26:03;7.33;;;6.73;;
5878;SDS011;2965;42.640;23.370;2023-07-13T12:30:57;7.13;;;6.53;;
5878;SDS011;2965;42.640;23.370;2023-07-13T12:33:27;14.93;;;6.90;;
5878;SDS011;2965;42.640;23.370;2023-07-13T12:35:54;9.33;;;6.63;;
5878;SDS011;2965;42.640;23.370;2023-07-13T12:38:20;10.20;;;6.70;;
5878;SDS011;2965;42.640;23.370;2023-07-13T12:40:48;7.37;;;6.77;;
5878;SDS011;2965;42.640;23.370;2023-07-13T12:43:16;7.80;;;6.50;;
5878;SDS011;2965;42.640;23.370;2023-07-13T12:48:27;12.23;;;8.00;;
5878;SDS011;2965;42.640;23.370;2023-07-13T12:50:53;19.10;;;7.13;;
5878;SDS011;2965;42.640;23.370;2023-07-13T12:53:22;16.77;;;8.87;;
5878;SDS011;2965;42.640;23.370;2023-07-13T12:55:56;7.83;;;7.23;;
5878;SDS011;2965;42.640;23.370;2023-07-13T12:58:48;7.97;;;7.23;;
5878;SDS011;2965;42.640;23.370;2023-07-13T13:01:15;8.20;;;6.73;;
5878;SDS011;2965;42.640;23.370;2023-07-13T13:03:52;11.13;;;7.13;;
5878;SDS011;2965;42.640;23.370;2023-07-13T13:08:45;7.67;;;7.03;;
5878;SDS011;2965;42.640;23.370;2023-07-13T13:11:13;43.97;;;9.13;;
5878;SDS011;2965;42.640;23.370;2023-07-13T13:13:42;41.33;;;9.67;;
5878;SDS011;2965;42.640;23.370;2023-07-13T13:16:29;7.10;;;6.50;;
5878;SDS011;2965;42.640;23.370;2023-07-13T13:18:57;14.87;;;7.03;;
5878;SDS011;2965;42.640;23.370;2023-07-13T13:21:27;8.27;;;6.53;;
5878;SDS011;2965;42.640;23.370;2023-07-13T13:23:53;8.20;;;6.63;;
5878;SDS011;2965;42.640;23.370;2023-07-13T13:26:18;13.50;;;6.50;;
5878;SDS011;2965;42.640;23.370;2023-07-13T13:28:45;14.03;;;6.90;;
5878;SDS011;2965;42.640;23.370;2023-07-13T13:31:12;12.77;;;6.17;;
5878;SDS011;2965;42.640;23.370;2023-07-13T13:33:39;9.90;;;7.70;;
5878;SDS011;2965;42.640;23.370;2023-07-13T13:36:16;6.87;;;6.20;;
5878;SDS011;2965;42.640;23.370;2023-07-13T13:38:47;8.30;;;6.20;;
5878;SDS011;2965;42.640;23.370;2023-07-13T13:41:14;6.30;;;5.70;;
5878;SDS011;2965;42.640;23.370;2023-07-13T13:43:40;9.83;;;6.23;;
5878;SDS011;2965;42.640;23.370;2023-07-13T13:46:13;7.03;;;6.37;;
5878;SDS011;2965;42.640;23.370;2023-07-13T13:48:41;7.20;;;6.70;;
5878;SDS011;2965;42.640;23.370;2023-07-13T13:51:15;7.20;;;6.57;;
5878;SDS011;2965;42.640;23.370;2023-07-13T13:53:43;19.67;;;6.73;;
5878;SDS011;2965;42.640;23.370;2023-07-13T13:56:10;10.20;;;6.90;;
5878;SDS011;2965;42.640;23.370;2023-07-13T13:58:36;11.50;;;6.10;;
5878;SDS011;2965;42.640;23.370;2023-07-13T14:01:02;10.10;;;6.57;;
5878;SDS011;2965;42.640;23.370;2023-07-13T14:03:28;7.47;;;6.03;;
5878;SDS011;2965;42.640;23.370;2023-07-13T14:05:53;10.40;;;7.00;;
5878;SDS011;2965;42.640;23.370;2023-07-13T14:08:21;6.60;;;6.03;;
5878;SDS011;2965;42.640;23.370;2023-07-13T14:10:49;21.07;;;6.70;;
5878;SDS011;2965;42.640;23.370;2023-07-13T14:13:18;5.93;;;5.50;;
5878;SDS011;2965;42.640;23.370;2023-07-13T14:15:45;15.50;;;7.30;;
5878;SDS011;2965;42.640;23.370;2023-07-13T14:18:10;11.30;;;5.80;;
5878;SDS011;2965;42.640;23.370;2023-07-13T14:20:36;9.73;;;5.37;;
5878;SDS011;2965;42.640;23.370;2023-07-13T14:23:01;9.93;;;6.00;;
5878;SDS011;2965;42.640;23.370;2023-07-13T14:25:27;5.80;;;5.30;;
5878;SDS011;2965;42.640;23.370;2023-07-13T14:27:53;15.27;;;6.17;;
5878;SDS011;2965;42.640;23.370;2023-07-13T14:30:23;6.70;;;5.33;;
5878;SDS011;2965;42.640;23.370;2023-07-13T14:32:49;5.50;;;5.30;;
5878;SDS011;2965;42.640;23.370;2023-07-13T14:35:15;6.63;;;5.77;;
5878;SDS011;2965;42.640;23.370;2023-07-13T14:37:42;8.20;;;6.30;;
5878;SDS011;2965;42.640;23.370;2023-07-13T14:40:19;11.40;;;5.40;;
5878;SDS011;2965;42.640;23.370;2023-07-13T14:42:51;18.13;;;5.03;;
5878;SDS011;2965;42.640;23.370;2023-07-13T14:45:17;11.40;;;5.23;;
5878;SDS011;2965;42.640;23.370;2023-07-13T14:47:44;5.70;;;5.30;;
5878;SDS011;2965;42.640;23.370;2023-07-13T14:50:17;7.20;;;5.43;;
5878;SDS011;2965;42.640;23.370;2023-07-13T14:52:45;5.90;;;5.50;;
5878;SDS011;2965;42.640;23.370;2023-07-13T14:55:13;5.87;;;5.30;;
5878;SDS011;2965;42.640;23.370;2023-07-13T14:57:41;8.53;;;5.50;;
5878;SDS011;2965;42.640;23.370;2023-07-13T15:00:13;5.87;;;5.30;;
5878;SDS011;2965;42.640;23.370;2023-07-13T15:02:42;6.10;;;5.60;;
5878;SDS011;2965;42.640;23.370;2023-07-13T15:05:13;6.50;;;5.40;;
5878;SDS011;2965;42.640;23.370;2023-07-13T15:07:39;5.30;;;5.00;;
5878;SDS011;2965;42.640;23.370;2023-07-13T15:10:11;5.83;;;5.53;;
5878;SDS011;2965;42.640;23.370;2023-07-13T15:12:50;10.57;;;5.43;;
5878;SDS011;2965;42.640;23.370;2023-07-13T15:15:17;6.40;;;5.37;;
5878;SDS011;2965;42.640;23.370;2023-07-13T15:17:45;5.97;;;5.40;;
5878;SDS011;2965;42.640;23.370;2023-07-13T15:20:18;7.67;;;6.20;;
5878;SDS011;2965;42.640;23.370;2023-07-13T15:22:44;5.47;;;5.00;;
5878;SDS011;2965;42.640;23.370;2023-07-13T15:25:15;14.87;;;6.50;;
5878;SDS011;2965;42.640;23.370;2023-07-13T15:27:43;5.33;;;4.90;;
5878;SDS011;2965;42.640;23.370;2023-07-13T15:30:09;6.07;;;5.60;;
5878;SDS011;2965;42.640;23.370;2023-07-13T15:32:35;5.93;;;5.20;;
5878;SDS011;2965;42.640;23.370;2023-07-13T15:35:00;6.30;;;5.90;;
5878;SDS011;2965;42.640;23.370;2023-07-13T15:37:25;17.40;;;5.73;;
5878;SDS011;2965;42.640;23.370;2023-07-13T15:42:19;11.43;;;5.00;;
5878;SDS011;2965;42.640;23.370;2023-07-13T15:44:45;5.90;;;5.30;;
5878;SDS011;2965;42.640;23.370;2023-07-13T15:47:12;15.83;;;6.20;;
5878;SDS011;2965;42.640;23.370;2023-07-13T15:49:39;15.17;;;6.00;;
5878;SDS011;2965;42.640;23.370;2023-07-13T15:52:08;7.33;;;5.53;;
5878;SDS011;2965;42.640;23.370;2023-07-13T15:54:41;8.83;;;5.93;;
5878;SDS011;2965;42.640;23.370;2023-07-13T15:57:08;5.10;;;4.83;;
5878;SDS011;2965;42.640;23.370;2023-07-13T15:59:35;14.90;;;5.80;;
5878;SDS011;2965;42.640;23.370;2023-07-13T16:02:04;6.57;;;5.40;;
5878;SDS011;2965;42.640;23.370;2023-07-13T16:04:41;11.03;;;4.53;;
5878;SDS011;2965;42.640;23.370;2023-07-13T16:07:09;5.33;;;4.83;;
5878;SDS011;2965;42.640;23.370;2023-07-13T16:09:35;8.40;;;4.70;;
5878;SDS011;2965;42.640;23.370;2023-07-13T16:12:00;13.27;;;5.27;;
5878;SDS011;2965;42.640;23.370;2023-07-13T16:14:26;6.83;;;4.93;;
5878;SDS011;2965;42.640;23.370;2023-07-13T16:16:51;17.70;;;5.17;;
5878;SDS011;2965;42.640;23.370;2023-07-13T16:19:20;13.73;;;5.50;;
5878;SDS011;2965;42.640;23.370;2023-07-13T16:21:53;7.03;;;5.30;;
5878;SDS011;2965;42.640;23.370;2023-07-13T16:24:21;5.33;;;4.80;;
5878;SDS011;2965;42.640;23.370;2023-07-13T16:26:49;13.40;;;5.27;;
5878;SDS011;2965;42.640;23.370;2023-07-13T16:34:20;7.40;;;4.87;;
5878;SDS011;2965;42.640;23.370;2023-07-13T16:36:45;4.70;;;4.30;;
5878;SDS011;2965;42.640;23.370;2023-07-13T16:39:11;6.13;;;5.57;;
5878;SDS011;2965;42.640;23.370;2023-07-13T16:41:39;7.43;;;5.50;;
5878;SDS011;2965;42.640;23.370;2023-07-13T16:44:11;6.33;;;5.47;;
5878;SDS011;2965;42.640;23.370;2023-07-13T16:46:41;8.13;;;4.73;;
5878;SDS011;2965;42.640;23.370;2023-07-13T16:49:21;6.70;;;5.27;;
5878;SDS011;2965;42.640;23.370;2023-07-13T16:51:54;5.13;;;4.50;;
5878;SDS011;2965;42.640;23.370;2023-07-13T16:54:26;5.30;;;5.00;;
5878;SDS011;2965;42.640;23.370;2023-07-13T16:56:52;5.40;;;5.10;;
5878;SDS011;2965;42.640;23.370;2023-07-13T16:59:18;6.10;;;5.43;;
5878;SDS011;2965;42.640;23.370;2023-07-13T17:01:45;6.63;;;5.67;;
5878;SDS011;2965;42.640;23.370;2023-07-13T17:04:15;5.37;;;4.97;;
5878;SDS011;2965;42.640;23.370;2023-07-13T17:06:45;5.30;;;5.10;;
5878;SDS011;2965;42.640;23.370;2023-07-13T17:09:12;8.27;;;4.60;;
5878;SDS011;2965;42.640;23.370;2023-07-13T17:11:41;4.90;;;4.60;;
5878;SDS011;2965;42.640;23.370;2023-07-13T17:14:16;6.40;;;5.43;;
5878;SDS011;2965;42.640;23.370;2023-07-13T17:16:51;6.23;;;5.13;;
5878;SDS011;2965;42.640;23.370;2023-07-13T17:19:18;11.20;;;6.20;;
5878;SDS011;2965;42.640;23.370;2023-07-13T17:21:48;7.60;;;5.63;;
5878;SDS011;2965;42.640;23.370;2023-07-13T17:24:17;16.00;;;5.43;;
5878;SDS011;2965;42.640;23.370;2023-07-13T17:26:45;6.67;;;6.00;;
5878;SDS011;2965;42.640;23.370;2023-07-13T17:29:11;6.10;;;5.40;;
5878;SDS011;2965;42.640;23.370;2023-07-13T17:31:37;10.77;;;5.50;;
5878;SDS011;2965;42.640;23.370;2023-07-13T17:34:02;6.67;;;6.03;;
5878;SDS011;2965;42.640;23.370;2023-07-13T17:36:30;10.73;;;5.57;;
5878;SDS011;2965;42.640;23.370;2023-07-13T17:38:57;6.20;;;5.70;;
5878;SDS011;2965;42.640;23.370;2023-07-13T17:41:22;13.60;;;5.77;;
5878;SDS011;2965;42.640;23.370;2023-07-13T17:43:49;7.10;;;6.43;;
5878;SDS011;2965;42.640;23.370;2023-07-13T17:46:16;11.13;;;5.97;;
5878;SDS011;2965;42.640;23.370;2023-07-13T17:48:44;7.30;;;6.70;;
5878;SDS011;2965;42.640;23.370;2023-07-13T17:51:15;23.67;;;7.60;;
5878;SDS011;2965;42.640;23.370;2023-07-13T17:53:42;8.93;;;6.67;;
5878;SDS011;2965;42.640;23.370;2023-07-13T17:56:11;6.50;;;6.00;;
5878;SDS011;2965;42.640;23.370;2023-07-13T17:58:38;6.43;;;5.80;;
5878;SDS011;2965;42.640;23.370;2023-07-13T18:01:05;10.03;;;6.37;;
5878;SDS011;2965;42.640;23.370;2023-07-13T18:03:36;11.90;;;7.20;;
5878;SDS011;2965;42.640;23.370;2023-07-13T18:06:10;9.43;;;6.90;;
5878;SDS011;2965;42.640;23.370;2023-07-13T18:08:56;7.53;;;6.87;;
5878;SDS011;2965;42.640;23.370;2023-07-13T18:11:23;7.13;;;6.60;;
5878;SDS011;2965;42.640;23.370;2023-07-13T18:13:49;12.47;;;7.00;;
5878;SDS011;2965;42.640;23.370;2023-07-13T18:18:55;10.70;;;6.77;;
5878;SDS011;2965;42.640;23.370;2023-07-13T18:21:22;12.20;;;6.80;;
5878;SDS011;2965;42.640;23.370;2023-07-13T18:23:48;10.10;;;7.30;;
5878;SDS011;2965;42.640;23.370;2023-07-13T18:26:18;13.57;;;7.43;;
5878;SDS011;2965;42.640;23.370;2023-07-13T18:28:44;11.57;;;7.07;;
5878;SDS011;2965;42.640;23.370;2023-07-13T18:31:14;11.83;;;7.93;;
5878;SDS011;2965;42.640;23.370;2023-07-13T18:33:43;8.83;;;7.93;;
5878;SDS011;2965;42.640;23.370;2023-07-13T18:36:11;8.10;;;7.30;;
5878;SDS011;2965;42.640;23.370;2023-07-13T18:38:39;11.53;;;8.30;;
5878;SDS011;2965;42.640;23.370;2023-07-13T18:41:05;8.23;;;6.70;;
5878;SDS011;2965;42.640;23.370;2023-07-13T18:43:33;8.37;;;7.57;;
5878;SDS011;2965;42.640;23.370;2023-07-13T18:46:00;7.83;;;6.30;;
5878;SDS011;2965;42.640;23.370;2023-07-13T18:48:31;15.53;;;7.50;;
5878;SDS011;2965;42.640;23.370;2023-07-13T18:50:58;7.10;;;6.57;;
5878;SDS011;2965;42.640;23.370;2023-07-13T18:53:23;9.77;;;6.63;;
5878;SDS011;2965;42.640;23.370;2023-07-13T18:55:51;12.83;;;7.30;;
5878;SDS011;2965;42.640;23.370;2023-07-13T18:58:17;11.23;;;7.47;;
5878;SDS011;2965;42.640;23.370;2023-07-13T19:00:44;10.93;;;6.60;;
5878;SDS011;2965;42.640;23.370;2023-07-13T19:03:16;10.37;;;7.60;;
5878;SDS011;2965;42.640;23.370;2023-07-13T19:05:43;9.17;;;7.10;;
5878;SDS011;2965;42.640;23.370;2023-07-13T19:08:11;14.53;;;7.30;;
5878;SDS011;2965;42.640;23.370;2023-07-13T19:10:39;13.87;;;7.63;;
5878;SDS011;2965;42.640;23.370;2023-07-13T19:13:05;11.93;;;7.63;;
5878;SDS011;2965;42.640;23.370;2023-07-13T19:15:34;8.73;;;7.90;;
5878;SDS011;2965;42.640;23.370;2023-07-13T19:18:04;11.13;;;7.60;;
5878;SDS011;2965;42.640;23.370;2023-07-13T19:20:36;19.90;;;9.27;;
5878;SDS011;2965;42.640;23.370;2023-07-13T19:23:04;21.53;;;8.10;;
5878;SDS011;2965;42.640;23.370;2023-07-13T19:25:33;16.30;;;7.77;;
5878;SDS011;2965;42.640;23.370;2023-07-13T19:28:00;7.83;;;7.10;;
5878;SDS011;2965;42.640;23.370;2023-07-13T19:30:47;11.87;;;7.30;;
5878;SDS011;2965;42.640;23.370;2023-07-13T19:33:14;8.13;;;6.83;;
5878;SDS011;2965;42.640;23.370;2023-07-13T19:35:41;16.63;;;6.97;;
5878;SDS011;2965;42.640;23.370;2023-07-13T19:40:53;10.27;;;7.80;;
5878;SDS011;2965;42.640;23.370;2023-07-13T19:43:19;23.90;;;8.37;;
5878;SDS011;2965;42.640;23.370;2023-07-13T19:45:44;25.77;;;7.87;;
5878;SDS011;2965;42.640;23.370;2023-07-13T19:48:10;19.37;;;8.00;;
5878;SDS011;2965;42.640;23.370;2023-07-13T19:50:36;16.53;;;8.37;;
5878;SDS011;2965;42.640;23.370;2023-07-13T19:53:03;19.40;;;8.80;;